createdAt,value
2022-10-02T00:03:04.283Z,98871.28
2022-10-02T00:09:11.324Z,98910.38
2022-10-02T00:15:29.206Z,98860.56
2022-10-02T00:28:35.320Z,98912.28
2022-10-02T00:34:47.984Z,98906.34
2022-10-02T00:41:06.047Z,98907.25
2022-10-02T00:47:32.166Z,98910.38
2022-10-02T00:53:40.604Z,98850.00
2022-10-02T01:00:03.933Z,98862.50
2022-10-02T01:06:07.574Z,98904.81
2022-10-02T01:12:09.941Z,98914.75
2022-10-02T01:18:15.030Z,98900.66
2022-10-02T01:24:26.964Z,98898.94
2022-10-02T01:30:31.473Z,98837.69
2022-10-02T01:36:35.611Z,98831.47
2022-10-02T01:42:40.343Z,98868.03
2022-10-02T01:48:48.151Z,98901.97
2022-10-02T01:55:26.157Z,98910.34
2022-10-02T02:01:54.401Z,98900.84
2022-10-02T02:08:05.683Z,98894.25
2022-10-02T02:14:31.184Z,98890.50
2022-10-02T02:33:59.938Z,98910.91
2022-10-02T02:40:33.088Z,98950.56
2022-10-02T02:47:23.710Z,98923.88
2022-10-02T02:53:32.981Z,98989.31
2022-10-02T02:59:44.736Z,98949.59
2022-10-02T03:06:19.216Z,98986.16
2022-10-02T03:13:16.221Z,98949.69
2022-10-02T03:19:43.701Z,98991.91
2022-10-02T03:26:08.472Z,99027.09
2022-10-02T03:32:19.045Z,98959.44
2022-10-02T03:38:24.358Z,99039.41
2022-10-02T03:44:28.931Z,98979.91
2022-10-02T03:50:40.953Z,98972.38
2022-10-02T03:56:59.185Z,99039.72
2022-10-02T04:03:09.533Z,99101.66
2022-10-02T04:09:19.115Z,99105.47
2022-10-02T04:15:48.524Z,99046.38
2022-10-02T04:22:01.379Z,99114.00
2022-10-02T04:28:12.020Z,99137.41
2022-10-02T04:34:18.461Z,99009.13
2022-10-02T04:40:39.955Z,99139.31
2022-10-02T04:46:48.055Z,99148.59
2022-10-02T04:53:27.408Z,99161.72
2022-10-02T05:00:05.348Z,99164.94
2022-10-02T05:06:28.941Z,99163.28
2022-10-02T05:13:13.046Z,99175.88
2022-10-02T05:19:33.292Z,99157.06
2022-10-02T05:25:47.215Z,99190.13
2022-10-02T05:32:27.205Z,99146.25
2022-10-02T05:38:57.290Z,99211.81
2022-10-02T05:45:17.018Z,99203.91
2022-10-02T05:51:49.718Z,99232.81
2022-10-02T05:58:22.894Z,99187.25
2022-10-02T06:04:46.409Z,99237.44
2022-10-02T06:10:58.057Z,99204.00
2022-10-02T06:17:09.139Z,99247.06
2022-10-02T06:23:37.350Z,99265.03
2022-10-02T06:30:13.916Z,99113.78
2022-10-02T06:36:27.990Z,99283.44
2022-10-02T06:42:42.084Z,99296.38
2022-10-02T06:48:54.749Z,99287.75
2022-10-02T07:02:23.012Z,99309.28
2022-10-02T07:08:28.673Z,99338.28
2022-10-02T07:15:25.736Z,99333.00
2022-10-02T07:21:42.640Z,99333.56
2022-10-02T07:28:12.561Z,99336.06
2022-10-02T07:41:12.783Z,99343.13
2022-10-02T07:54:58.527Z,99349.78
2022-10-02T08:01:23.607Z,99233.41
2022-10-02T08:14:22.544Z,99354.56
2022-10-02T08:20:30.466Z,99366.16
2022-10-02T08:26:54.170Z,99366.47
2022-10-02T08:33:19.475Z,99326.72
2022-10-02T08:39:36.520Z,99347.09
2022-10-02T08:46:10.905Z,99357.56
2022-10-02T09:05:35.660Z,99348.56
2022-10-02T09:12:24.444Z,99302.66
2022-10-02T09:19:02.586Z,99344.25
2022-10-02T10:27:01.183Z,99358.88
2022-10-02T10:33:44.390Z,99363.63
2022-10-02T11:06:46.172Z,99223.00
2022-10-02T11:19:54.452Z,99352.59
2022-10-02T12:45:19.230Z,99359.81
2022-10-02T14:57:01.192Z,99404.63
2022-10-02T16:49:16.895Z,99453.50
